Terminal Aerodrome Forecast
Issued by NWS Upton, NY

Home | Current Version | Previous Version | Text Only | Print | Product List | Glossary On
Versions: 1 2 3 4 5 6 7 8 9 10 11 12 13 14 15 16 17 18 19 20 21 22 23 24 25 26 27
000
FTUS41 KOKX 011400 AAA
TAFEWR
TAF AMD
KEWR 011432Z 0115/0218 02008KT P6SM OVC015
     FM011900 02010KT P6SM BKN015 OVC030
      TEMPO 0119/0121 BKN025
     FM020200 01008KT P6SM OVC012
     FM021600 02010KT P6SM OVC020=

USA.gov is the U.S. government's official web portal to all federal, state and local government web resources and services.